sensor_id;sensor_type;location;lat;lon;timestamp;P1;durP1;ratioP1;P2;durP2;ratioP2
63599;SDS011;49747;51.334;6.830;2022-12-17T00:00:17;55.97;;;18.42;;
63599;SDS011;49747;51.334;6.830;2022-12-17T00:03:02;56.47;;;21.02;;
63599;SDS011;49747;51.334;6.830;2022-12-17T00:05:47;57.78;;;20.38;;
63599;SDS011;49747;51.334;6.830;2022-12-17T00:08:32;57.20;;;20.70;;
63599;SDS011;49747;51.334;6.830;2022-12-17T00:11:17;58.40;;;20.45;;
63599;SDS011;49747;51.334;6.830;2022-12-17T00:14:03;58.58;;;19.85;;
63599;SDS011;49747;51.334;6.830;2022-12-17T00:16:48;56.95;;;21.00;;
63599;SDS011;49747;51.334;6.830;2022-12-17T00:19:33;64.38;;;23.20;;
63599;SDS011;49747;51.334;6.830;2022-12-17T00:22:21;66.65;;;21.55;;
63599;SDS011;49747;51.334;6.830;2022-12-17T00:25:07;57.90;;;21.92;;
63599;SDS011;49747;51.334;6.830;2022-12-17T00:27:52;60.70;;;20.65;;
63599;SDS011;49747;51.334;6.830;2022-12-17T00:30:38;59.78;;;23.02;;
63599;SDS011;49747;51.334;6.830;2022-12-17T00:33:23;56.30;;;22.15;;
63599;SDS011;49747;51.334;6.830;2022-12-17T00:36:08;62.58;;;21.98;;
63599;SDS011;49747;51.334;6.830;2022-12-17T00:38:53;54.25;;;19.98;;
63599;SDS011;49747;51.334;6.830;2022-12-17T00:41:39;58.60;;;22.52;;
63599;SDS011;49747;51.334;6.830;2022-12-17T00:44:24;59.13;;;22.25;;
63599;SDS011;49747;51.334;6.830;2022-12-17T00:47:10;56.97;;;21.88;;
63599;SDS011;49747;51.334;6.830;2022-12-17T00:49:55;61.78;;;21.48;;
63599;SDS011;49747;51.334;6.830;2022-12-17T00:52:40;58.30;;;22.38;;
63599;SDS011;49747;51.334;6.830;2022-12-17T00:55:25;55.10;;;20.42;;
63599;SDS011;49747;51.334;6.830;2022-12-17T00:58:10;62.38;;;22.60;;
63599;SDS011;49747;51.334;6.830;2022-12-17T01:00:59;62.72;;;21.10;;
63599;SDS011;49747;51.334;6.830;2022-12-17T01:03:45;56.90;;;21.25;;
63599;SDS011;49747;51.334;6.830;2022-12-17T01:06:30;54.83;;;20.13;;
63599;SDS011;49747;51.334;6.830;2022-12-17T01:09:16;57.60;;;20.05;;
63599;SDS011;49747;51.334;6.830;2022-12-17T01:12:01;54.13;;;21.30;;
63599;SDS011;49747;51.334;6.830;2022-12-17T01:14:46;49.92;;;18.75;;
63599;SDS011;49747;51.334;6.830;2022-12-17T01:17:31;56.78;;;20.10;;
63599;SDS011;49747;51.334;6.830;2022-12-17T01:20:17;54.13;;;21.17;;
63599;SDS011;49747;51.334;6.830;2022-12-17T01:23:02;53.05;;;19.52;;
63599;SDS011;49747;51.334;6.830;2022-12-17T01:25:56;54.92;;;19.17;;
63599;SDS011;49747;51.334;6.830;2022-12-17T01:28:42;56.22;;;20.30;;
63599;SDS011;49747;51.334;6.830;2022-12-17T01:31:27;47.67;;;17.75;;
63599;SDS011;49747;51.334;6.830;2022-12-17T01:34:15;48.60;;;19.02;;
63599;SDS011;49747;51.334;6.830;2022-12-17T01:37:01;59.15;;;18.40;;
63599;SDS011;49747;51.334;6.830;2022-12-17T01:39:47;51.78;;;18.35;;
63599;SDS011;49747;51.334;6.830;2022-12-17T01:42:45;50.13;;;18.35;;
63599;SDS011;49747;51.334;6.830;2022-12-17T01:45:34;49.13;;;18.38;;
63599;SDS011;49747;51.334;6.830;2022-12-17T01:48:26;48.25;;;18.65;;
63599;SDS011;49747;51.334;6.830;2022-12-17T01:51:15;56.28;;;19.02;;
63599;SDS011;49747;51.334;6.830;2022-12-17T01:54:02;54.20;;;17.70;;
63599;SDS011;49747;51.334;6.830;2022-12-17T01:56:48;45.63;;;16.95;;
63599;SDS011;49747;51.334;6.830;2022-12-17T02:02:40;50.58;;;18.05;;
63599;SDS011;49747;51.334;6.830;2022-12-17T02:05:44;46.28;;;16.90;;
63599;SDS011;49747;51.334;6.830;2022-12-17T02:08:45;46.17;;;17.15;;
63599;SDS011;49747;51.334;6.830;2022-12-17T02:12:03;45.33;;;15.90;;
63599;SDS011;49747;51.334;6.830;2022-12-17T02:17:52;52.80;;;18.70;;
63599;SDS011;49747;51.334;6.830;2022-12-17T02:20:47;47.55;;;17.88;;
63599;SDS011;49747;51.334;6.830;2022-12-17T02:23:51;48.85;;;17.70;;
63599;SDS011;49747;51.334;6.830;2022-12-17T02:26:45;50.17;;;17.42;;
63599;SDS011;49747;51.334;6.830;2022-12-17T02:29:49;51.63;;;18.27;;
63599;SDS011;49747;51.334;6.830;2022-12-17T02:32:38;47.25;;;17.90;;
63599;SDS011;49747;51.334;6.830;2022-12-17T02:35:32;48.80;;;17.58;;
63599;SDS011;49747;51.334;6.830;2022-12-17T02:38:27;47.85;;;17.75;;
63599;SDS011;49747;51.334;6.830;2022-12-17T02:41:16;45.58;;;16.75;;
63599;SDS011;49747;51.334;6.830;2022-12-17T02:44:06;47.88;;;19.25;;
63599;SDS011;49747;51.334;6.830;2022-12-17T02:46:53;46.05;;;18.40;;
63599;SDS011;49747;51.334;6.830;2022-12-17T02:49:42;52.30;;;19.13;;
63599;SDS011;49747;51.334;6.830;2022-12-17T02:52:32;53.17;;;18.20;;
63599;SDS011;49747;51.334;6.830;2022-12-17T02:55:20;53.08;;;18.17;;
63599;SDS011;49747;51.334;6.830;2022-12-17T02:58:06;53.03;;;18.15;;
63599;SDS011;49747;51.334;6.830;2022-12-17T03:00:51;45.20;;;16.88;;
63599;SDS011;49747;51.334;6.830;2022-12-17T03:03:37;53.47;;;17.77;;
63599;SDS011;49747;51.334;6.830;2022-12-17T03:06:22;45.85;;;18.33;;
63599;SDS011;49747;51.334;6.830;2022-12-17T03:09:07;47.22;;;17.58;;
63599;SDS011;49747;51.334;6.830;2022-12-17T03:11:52;40.55;;;16.92;;
63599;SDS011;49747;51.334;6.830;2022-12-17T03:14:38;49.10;;;16.90;;
63599;SDS011;49747;51.334;6.830;2022-12-17T03:17:23;52.45;;;18.30;;
63599;SDS011;49747;51.334;6.830;2022-12-17T03:20:08;41.30;;;17.05;;
63599;SDS011;49747;51.334;6.830;2022-12-17T03:23:01;51.78;;;17.70;;
63599;SDS011;49747;51.334;6.830;2022-12-17T03:25:47;47.35;;;18.80;;
63599;SDS011;49747;51.334;6.830;2022-12-17T03:28:32;47.13;;;16.83;;
63599;SDS011;49747;51.334;6.830;2022-12-17T03:31:17;42.80;;;17.40;;
63599;SDS011;49747;51.334;6.830;2022-12-17T03:34:03;49.90;;;17.55;;
63599;SDS011;49747;51.334;6.830;2022-12-17T03:36:49;50.85;;;17.55;;
63599;SDS011;49747;51.334;6.830;2022-12-17T03:39:35;42.40;;;16.38;;
63599;SDS011;49747;51.334;6.830;2022-12-17T03:42:20;49.65;;;19.00;;
63599;SDS011;49747;51.334;6.830;2022-12-17T03:45:05;46.75;;;16.70;;
63599;SDS011;49747;51.334;6.830;2022-12-17T03:47:50;47.58;;;17.95;;
63599;SDS011;49747;51.334;6.830;2022-12-17T03:50:36;51.03;;;16.55;;
63599;SDS011;49747;51.334;6.830;2022-12-17T03:53:21;48.20;;;17.50;;
63599;SDS011;49747;51.334;6.830;2022-12-17T03:56:06;46.15;;;17.30;;
63599;SDS011;49747;51.334;6.830;2022-12-17T03:58:51;50.25;;;17.25;;
63599;SDS011;49747;51.334;6.830;2022-12-17T04:01:36;47.55;;;17.30;;
63599;SDS011;49747;51.334;6.830;2022-12-17T04:04:21;46.20;;;17.52;;
63599;SDS011;49747;51.334;6.830;2022-12-17T04:07:06;49.65;;;17.85;;
63599;SDS011;49747;51.334;6.830;2022-12-17T04:09:51;45.60;;;17.80;;
63599;SDS011;49747;51.334;6.830;2022-12-17T04:12:36;46.17;;;17.48;;
63599;SDS011;49747;51.334;6.830;2022-12-17T04:15:21;46.47;;;17.92;;
63599;SDS011;49747;51.334;6.830;2022-12-17T04:18:06;46.47;;;16.98;;
63599;SDS011;49747;51.334;6.830;2022-12-17T04:20:51;50.08;;;17.58;;
63599;SDS011;49747;51.334;6.830;2022-12-17T04:23:37;45.65;;;16.40;;
63599;SDS011;49747;51.334;6.830;2022-12-17T04:26:22;43.42;;;17.10;;
63599;SDS011;49747;51.334;6.830;2022-12-17T04:29:06;42.35;;;16.55;;
63599;SDS011;49747;51.334;6.830;2022-12-17T04:31:52;44.30;;;16.67;;
63599;SDS011;49747;51.334;6.830;2022-12-17T04:34:37;36.97;;;15.65;;
63599;SDS011;49747;51.334;6.830;2022-12-17T04:37:22;42.25;;;15.45;;
63599;SDS011;49747;51.334;6.830;2022-12-17T04:40:07;41.10;;;15.00;;
63599;SDS011;49747;51.334;6.830;2022-12-17T04:42:54;41.53;;;15.73;;
63599;SDS011;49747;51.334;6.830;2022-12-17T04:45:39;41.95;;;16.00;;
63599;SDS011;49747;51.334;6.830;2022-12-17T04:48:25;42.90;;;17.70;;
63599;SDS011;49747;51.334;6.830;2022-12-17T04:51:09;41.50;;;16.88;;
63599;SDS011;49747;51.334;6.830;2022-12-17T04:53:56;39.83;;;16.80;;
63599;SDS011;49747;51.334;6.830;2022-12-17T04:56:42;39.22;;;15.82;;
63599;SDS011;49747;51.334;6.830;2022-12-17T04:59:27;37.95;;;16.13;;
63599;SDS011;49747;51.334;6.830;2022-12-17T05:02:12;43.03;;;17.00;;
63599;SDS011;49747;51.334;6.830;2022-12-17T05:04:57;42.10;;;17.13;;
63599;SDS011;49747;51.334;6.830;2022-12-17T05:07:43;45.97;;;17.20;;
63599;SDS011;49747;51.334;6.830;2022-12-17T05:10:28;38.97;;;17.75;;
63599;SDS011;49747;51.334;6.830;2022-12-17T05:13:13;43.10;;;17.40;;
63599;SDS011;49747;51.334;6.830;2022-12-17T05:15:59;45.50;;;17.23;;
63599;SDS011;49747;51.334;6.830;2022-12-17T05:18:44;42.28;;;17.20;;
63599;SDS011;49747;51.334;6.830;2022-12-17T05:21:30;44.38;;;17.05;;
63599;SDS011;49747;51.334;6.830;2022-12-17T05:24:15;46.75;;;17.40;;
63599;SDS011;49747;51.334;6.830;2022-12-17T05:27:00;45.75;;;16.92;;
63599;SDS011;49747;51.334;6.830;2022-12-17T05:29:45;45.58;;;17.95;;
63599;SDS011;49747;51.334;6.830;2022-12-17T05:32:30;41.47;;;16.90;;
63599;SDS011;49747;51.334;6.830;2022-12-17T05:35:15;41.08;;;16.27;;
63599;SDS011;49747;51.334;6.830;2022-12-17T05:38:04;48.83;;;16.10;;
63599;SDS011;49747;51.334;6.830;2022-12-17T05:40:51;44.55;;;16.08;;
63599;SDS011;49747;51.334;6.830;2022-12-17T05:43:38;42.90;;;17.25;;
63599;SDS011;49747;51.334;6.830;2022-12-17T05:46:24;45.70;;;16.80;;
63599;SDS011;49747;51.334;6.830;2022-12-17T05:49:10;45.80;;;17.63;;
63599;SDS011;49747;51.334;6.830;2022-12-17T05:51:55;39.03;;;14.60;;
63599;SDS011;49747;51.334;6.830;2022-12-17T05:54:40;44.03;;;16.08;;
63599;SDS011;49747;51.334;6.830;2022-12-17T05:57:25;41.58;;;14.95;;
63599;SDS011;49747;51.334;6.830;2022-12-17T06:00:10;45.03;;;16.05;;
63599;SDS011;49747;51.334;6.830;2022-12-17T06:02:59;38.85;;;14.85;;
63599;SDS011;49747;51.334;6.830;2022-12-17T06:05:46;41.85;;;15.90;;
63599;SDS011;49747;51.334;6.830;2022-12-17T06:08:32;41.33;;;14.98;;
63599;SDS011;49747;51.334;6.830;2022-12-17T06:11:17;37.83;;;16.42;;
63599;SDS011;49747;51.334;6.830;2022-12-17T06:14:02;38.42;;;15.63;;
63599;SDS011;49747;51.334;6.830;2022-12-17T06:16:47;39.67;;;16.00;;
63599;SDS011;49747;51.334;6.830;2022-12-17T06:19:32;36.90;;;15.43;;
63599;SDS011;49747;51.334;6.830;2022-12-17T06:22:34;42.55;;;15.80;;
63599;SDS011;49747;51.334;6.830;2022-12-17T06:25:20;39.10;;;15.15;;
63599;SDS011;49747;51.334;6.830;2022-12-17T06:28:04;40.60;;;15.60;;
63599;SDS011;49747;51.334;6.830;2022-12-17T06:30:53;42.83;;;15.70;;
63599;SDS011;49747;51.334;6.830;2022-12-17T06:33:39;38.22;;;15.18;;
63599;SDS011;49747;51.334;6.830;2022-12-17T06:36:24;42.75;;;15.23;;
63599;SDS011;49747;51.334;6.830;2022-12-17T06:39:09;41.75;;;15.80;;
63599;SDS011;49747;51.334;6.830;2022-12-17T06:42:05;38.15;;;15.00;;
63599;SDS011;49747;51.334;6.830;2022-12-17T06:44:50;34.20;;;13.95;;
63599;SDS011;49747;51.334;6.830;2022-12-17T06:47:35;38.15;;;14.43;;
63599;SDS011;49747;51.334;6.830;2022-12-17T06:50:20;38.08;;;15.45;;
63599;SDS011;49747;51.334;6.830;2022-12-17T06:53:06;34.67;;;15.02;;
63599;SDS011;49747;51.334;6.830;2022-12-17T06:55:51;40.80;;;15.52;;
63599;SDS011;49747;51.334;6.830;2022-12-17T06:58:36;40.42;;;15.85;;
63599;SDS011;49747;51.334;6.830;2022-12-17T07:01:22;39.58;;;15.43;;
63599;SDS011;49747;51.334;6.830;2022-12-17T07:04:07;37.45;;;14.38;;
63599;SDS011;49747;51.334;6.830;2022-12-17T07:06:53;34.88;;;14.40;;
63599;SDS011;49747;51.334;6.830;2022-12-17T07:09:38;37.40;;;14.20;;
63599;SDS011;49747;51.334;6.830;2022-12-17T07:12:25;32.30;;;13.35;;
63599;SDS011;49747;51.334;6.830;2022-12-17T07:15:10;34.13;;;14.05;;
63599;SDS011;49747;51.334;6.830;2022-12-17T07:17:56;34.67;;;13.93;;
63599;SDS011;49747;51.334;6.830;2022-12-17T07:20:42;36.20;;;14.38;;
63599;SDS011;49747;51.334;6.830;2022-12-17T07:23:27;34.17;;;14.15;;
63599;SDS011;49747;51.334;6.830;2022-12-17T07:26:14;33.00;;;13.65;;
63599;SDS011;49747;51.334;6.830;2022-12-17T07:28:59;31.88;;;12.57;;
63599;SDS011;49747;51.334;6.830;2022-12-17T07:31:44;30.90;;;13.50;;
63599;SDS011;49747;51.334;6.830;2022-12-17T07:34:30;33.35;;;13.80;;
63599;SDS011;49747;51.334;6.830;2022-12-17T07:37:15;35.35;;;13.77;;
63599;SDS011;49747;51.334;6.830;2022-12-17T07:40:00;32.38;;;12.75;;
63599;SDS011;49747;51.334;6.830;2022-12-17T07:42:45;28.90;;;13.18;;
63599;SDS011;49747;51.334;6.830;2022-12-17T07:45:31;34.08;;;15.10;;
63599;SDS011;49747;51.334;6.830;2022-12-17T07:48:16;31.98;;;13.23;;
63599;SDS011;49747;51.334;6.830;2022-12-17T07:51:01;36.63;;;14.32;;
63599;SDS011;49747;51.334;6.830;2022-12-17T07:53:46;32.00;;;13.18;;
63599;SDS011;49747;51.334;6.830;2022-12-17T07:56:32;32.17;;;13.65;;
63599;SDS011;49747;51.334;6.830;2022-12-17T07:59:17;35.15;;;13.80;;
63599;SDS011;49747;51.334;6.830;2022-12-17T08:02:02;30.00;;;13.07;;
63599;SDS011;49747;51.334;6.830;2022-12-17T08:04:47;35.63;;;13.65;;
63599;SDS011;49747;51.334;6.830;2022-12-17T08:07:32;29.48;;;11.68;;
63599;SDS011;49747;51.334;6.830;2022-12-17T08:10:17;31.52;;;12.20;;
63599;SDS011;49747;51.334;6.830;2022-12-17T08:13:03;28.63;;;11.80;;
63599;SDS011;49747;51.334;6.830;2022-12-17T08:15:51;28.70;;;13.07;;
63599;SDS011;49747;51.334;6.830;2022-12-17T08:18:37;31.83;;;12.63;;
63599;SDS011;49747;51.334;6.830;2022-12-17T08:21:22;25.50;;;11.13;;
63599;SDS011;49747;51.334;6.830;2022-12-17T08:24:07;31.17;;;12.00;;
63599;SDS011;49747;51.334;6.830;2022-12-17T08:26:52;28.30;;;10.82;;
63599;SDS011;49747;51.334;6.830;2022-12-17T08:29:37;30.67;;;12.80;;
63599;SDS011;49747;51.334;6.830;2022-12-17T08:32:23;24.02;;;9.85;;
63599;SDS011;49747;51.334;6.830;2022-12-17T08:35:08;24.15;;;10.23;;
63599;SDS011;49747;51.334;6.830;2022-12-17T08:37:59;23.67;;;9.50;;
63599;SDS011;49747;51.334;6.830;2022-12-17T08:40:45;21.73;;;10.00;;
63599;SDS011;49747;51.334;6.830;2022-12-17T08:43:30;24.33;;;10.32;;
63599;SDS011;49747;51.334;6.830;2022-12-17T08:46:16;22.52;;;10.23;;
63599;SDS011;49747;51.334;6.830;2022-12-17T08:49:01;25.08;;;10.35;;
63599;SDS011;49747;51.334;6.830;2022-12-17T08:51:46;22.67;;;10.43;;
63599;SDS011;49747;51.334;6.830;2022-12-17T08:54:31;25.55;;;10.13;;
63599;SDS011;49747;51.334;6.830;2022-12-17T08:57:16;23.42;;;10.57;;
63599;SDS011;49747;51.334;6.830;2022-12-17T09:00:01;26.27;;;10.60;;
63599;SDS011;49747;51.334;6.830;2022-12-17T09:02:46;21.60;;;9.10;;
63599;SDS011;49747;51.334;6.830;2022-12-17T09:05:32;19.20;;;9.35;;
63599;SDS011;49747;51.334;6.830;2022-12-17T09:08:17;23.27;;;9.55;;
63599;SDS011;49747;51.334;6.830;2022-12-17T09:11:02;21.42;;;9.18;;
63599;SDS011;49747;51.334;6.830;2022-12-17T09:13:47;23.92;;;10.88;;
63599;SDS011;49747;51.334;6.830;2022-12-17T09:16:33;22.08;;;9.55;;
63599;SDS011;49747;51.334;6.830;2022-12-17T09:19:18;24.50;;;10.10;;
63599;SDS011;49747;51.334;6.830;2022-12-17T09:22:03;23.10;;;9.70;;
63599;SDS011;49747;51.334;6.830;2022-12-17T09:24:48;23.35;;;10.10;;
63599;SDS011;49747;51.334;6.830;2022-12-17T09:27:33;21.02;;;9.10;;
63599;SDS011;49747;51.334;6.830;2022-12-17T09:30:19;17.50;;;8.90;;
63599;SDS011;49747;51.334;6.830;2022-12-17T09:33:04;19.33;;;8.90;;
63599;SDS011;49747;51.334;6.830;2022-12-17T09:35:50;21.25;;;9.57;;
63599;SDS011;49747;51.334;6.830;2022-12-17T09:38:36;19.35;;;9.25;;
63599;SDS011;49747;51.334;6.830;2022-12-17T09:41:27;24.00;;;9.10;;
63599;SDS011;49747;51.334;6.830;2022-12-17T09:44:22;19.77;;;9.13;;
63599;SDS011;49747;51.334;6.830;2022-12-17T09:50:08;19.77;;;8.98;;
63599;SDS011;49747;51.334;6.830;2022-12-17T09:52:58;19.08;;;9.02;;
63599;SDS011;49747;51.334;6.830;2022-12-17T09:55:46;17.33;;;8.68;;
63599;SDS011;49747;51.334;6.830;2022-12-17T09:58:34;21.13;;;9.45;;
63599;SDS011;49747;51.334;6.830;2022-12-17T10:01:26;20.08;;;9.25;;
63599;SDS011;49747;51.334;6.830;2022-12-17T10:04:17;18.17;;;8.70;;
63599;SDS011;49747;51.334;6.830;2022-12-17T10:07:22;20.00;;;8.93;;
63599;SDS011;49747;51.334;6.830;2022-12-17T10:10:18;18.35;;;8.80;;
63599;SDS011;49747;51.334;6.830;2022-12-17T10:13:08;19.50;;;9.07;;
63599;SDS011;49747;51.334;6.830;2022-12-17T10:15:59;16.98;;;8.00;;
63599;SDS011;49747;51.334;6.830;2022-12-17T10:18:45;19.48;;;9.20;;
63599;SDS011;49747;51.334;6.830;2022-12-17T10:21:31;20.83;;;9.50;;
63599;SDS011;49747;51.334;6.830;2022-12-17T10:24:18;17.70;;;8.43;;
63599;SDS011;49747;51.334;6.830;2022-12-17T10:27:09;21.33;;;9.80;;
63599;SDS011;49747;51.334;6.830;2022-12-17T10:29:56;32.47;;;11.00;;
63599;SDS011;49747;51.334;6.830;2022-12-17T10:32:41;22.85;;;8.20;;
63599;SDS011;49747;51.334;6.830;2022-12-17T10:35:34;25.30;;;11.32;;
63599;SDS011;49747;51.334;6.830;2022-12-17T10:38:35;25.52;;;11.07;;
63599;SDS011;49747;51.334;6.830;2022-12-17T10:41:28;28.42;;;11.80;;
63599;SDS011;49747;51.334;6.830;2022-12-17T10:47:16;22.25;;;11.02;;
63599;SDS011;49747;51.334;6.830;2022-12-17T10:50:12;24.40;;;10.38;;
63599;SDS011;49747;51.334;6.830;2022-12-17T10:52:59;27.90;;;12.00;;
63599;SDS011;49747;51.334;6.830;2022-12-17T10:55:54;27.23;;;12.48;;
63599;SDS011;49747;51.334;6.830;2022-12-17T10:58:48;25.85;;;11.98;;
63599;SDS011;49747;51.334;6.830;2022-12-17T11:01:36;29.13;;;12.48;;
63599;SDS011;49747;51.334;6.830;2022-12-17T11:04:30;27.60;;;12.65;;
63599;SDS011;49747;51.334;6.830;2022-12-17T11:07:26;30.60;;;14.18;;
63599;SDS011;49747;51.334;6.830;2022-12-17T11:10:23;28.05;;;12.60;;
63599;SDS011;49747;51.334;6.830;2022-12-17T11:13:14;29.90;;;13.05;;
63599;SDS011;49747;51.334;6.830;2022-12-17T11:19:26;25.35;;;12.95;;
63599;SDS011;49747;51.334;6.830;2022-12-17T11:22:22;32.28;;;12.65;;
63599;SDS011;49747;51.334;6.830;2022-12-17T11:28:16;33.20;;;14.75;;
63599;SDS011;49747;51.334;6.830;2022-12-17T11:31:11;26.40;;;12.40;;
63599;SDS011;49747;51.334;6.830;2022-12-17T11:34:17;29.92;;;12.82;;
63599;SDS011;49747;51.334;6.830;2022-12-17T11:37:29;28.38;;;13.88;;
63599;SDS011;49747;51.334;6.830;2022-12-17T11:40:41;33.20;;;12.60;;
63599;SDS011;49747;51.334;6.830;2022-12-17T11:46:54;32.20;;;14.57;;
63599;SDS011;49747;51.334;6.830;2022-12-17T11:49:45;30.98;;;13.02;;
63599;SDS011;49747;51.334;6.830;2022-12-17T11:53:03;31.20;;;13.93;;
63599;SDS011;49747;51.334;6.830;2022-12-17T11:56:28;29.80;;;13.48;;
63599;SDS011;49747;51.334;6.830;2022-12-17T11:59:22;33.08;;;14.13;;
63599;SDS011;49747;51.334;6.830;2022-12-17T12:02:36;36.53;;;14.73;;
63599;SDS011;49747;51.334;6.830;2022-12-17T12:18:17;34.17;;;15.25;;
63599;SDS011;49747;51.334;6.830;2022-12-17T12:21:18;36.20;;;15.75;;
63599;SDS011;49747;51.334;6.830;2022-12-17T12:27:35;31.77;;;14.55;;
63599;SDS011;49747;51.334;6.830;2022-12-17T12:30:33;33.63;;;14.40;;
63599;SDS011;49747;51.334;6.830;2022-12-17T12:33:43;33.03;;;13.85;;
63599;SDS011;49747;51.334;6.830;2022-12-17T12:36:28;30.25;;;13.57;;
63599;SDS011;49747;51.334;6.830;2022-12-17T12:39:16;30.02;;;14.25;;
63599;SDS011;49747;51.334;6.830;2022-12-17T12:42:08;30.70;;;13.98;;
63599;SDS011;49747;51.334;6.830;2022-12-17T12:48:27;31.92;;;14.10;;
63599;SDS011;49747;51.334;6.830;2022-12-17T12:51:29;30.00;;;13.68;;
63599;SDS011;49747;51.334;6.830;2022-12-17T12:54:23;32.28;;;15.30;;
63599;SDS011;49747;51.334;6.830;2022-12-17T12:57:28;31.40;;;13.45;;
63599;SDS011;49747;51.334;6.830;2022-12-17T13:00:51;33.95;;;15.75;;
63599;SDS011;49747;51.334;6.830;2022-12-17T13:14:28;31.02;;;13.93;;
63599;SDS011;49747;51.334;6.830;2022-12-17T13:17:02;34.72;;;15.07;;
63599;SDS011;49747;51.334;6.830;2022-12-17T13:24:54;27.88;;;14.27;;
63599;SDS011;49747;51.334;6.830;2022-12-17T13:27:41;31.52;;;13.57;;
63599;SDS011;49747;51.334;6.830;2022-12-17T13:32:49;27.20;;;13.60;;
63599;SDS011;49747;51.334;6.830;2022-12-17T13:41:12;32.78;;;14.18;;
63599;SDS011;49747;51.334;6.830;2022-12-17T13:43:43;36.67;;;14.45;;
63599;SDS011;49747;51.334;6.830;2022-12-17T13:47:03;28.50;;;14.90;;
63599;SDS011;49747;51.334;6.830;2022-12-17T13:49:23;32.20;;;14.55;;
63599;SDS011;49747;51.334;6.830;2022-12-17T13:52:14;33.05;;;14.20;;
63599;SDS011;49747;51.334;6.830;2022-12-17T13:54:44;27.88;;;14.15;;
63599;SDS011;49747;51.334;6.830;2022-12-17T13:57:20;28.35;;;14.20;;
63599;SDS011;49747;51.334;6.830;2022-12-17T13:59:50;33.25;;;15.65;;
63599;SDS011;49747;51.334;6.830;2022-12-17T14:02:31;32.92;;;14.73;;
63599;SDS011;49747;51.334;6.830;2022-12-17T14:05:04;25.58;;;12.43;;
63599;SDS011;49747;51.334;6.830;2022-12-17T14:07:48;30.98;;;15.50;;
63599;SDS011;49747;51.334;6.830;2022-12-17T14:12:45;30.25;;;13.60;;
63599;SDS011;49747;51.334;6.830;2022-12-17T14:15:23;33.92;;;14.38;;
63599;SDS011;49747;51.334;6.830;2022-12-17T14:17:51;30.55;;;14.90;;
63599;SDS011;49747;51.334;6.830;2022-12-17T14:20:24;30.13;;;13.63;;
63599;SDS011;49747;51.334;6.830;2022-12-17T14:22:58;26.73;;;13.02;;
63599;SDS011;49747;51.334;6.830;2022-12-17T14:25:29;27.23;;;12.85;;
63599;SDS011;49747;51.334;6.830;2022-12-17T14:28:05;33.38;;;13.57;;
63599;SDS011;49747;51.334;6.830;2022-12-17T14:30:44;27.73;;;14.27;;
63599;SDS011;49747;51.334;6.830;2022-12-17T14:33:33;30.42;;;13.75;;
63599;SDS011;49747;51.334;6.830;2022-12-17T14:36:05;29.55;;;15.27;;
63599;SDS011;49747;51.334;6.830;2022-12-17T14:38:34;29.48;;;13.25;;
63599;SDS011;49747;51.334;6.830;2022-12-17T14:41:08;31.33;;;15.20;;
63599;SDS011;49747;51.334;6.830;2022-12-17T14:43:58;31.80;;;15.55;;
63599;SDS011;49747;51.334;6.830;2022-12-17T14:48:56;31.27;;;13.60;;
63599;SDS011;49747;51.334;6.830;2022-12-17T14:51:33;31.40;;;14.85;;
63599;SDS011;49747;51.334;6.830;2022-12-17T14:56:40;36.55;;;16.02;;
63599;SDS011;49747;51.334;6.830;2022-12-17T14:59:20;36.03;;;16.73;;
63599;SDS011;49747;51.334;6.830;2022-12-17T15:01:52;29.92;;;14.60;;
63599;SDS011;49747;51.334;6.830;2022-12-17T15:04:21;29.90;;;15.27;;
63599;SDS011;49747;51.334;6.830;2022-12-17T15:06:48;28.92;;;13.80;;
63599;SDS011;49747;51.334;6.830;2022-12-17T15:09:18;27.48;;;15.13;;
63599;SDS011;49747;51.334;6.830;2022-12-17T15:11:45;29.58;;;15.00;;
63599;SDS011;49747;51.334;6.830;2022-12-17T15:14:11;29.10;;;15.57;;
63599;SDS011;49747;51.334;6.830;2022-12-17T15:16:38;29.20;;;13.93;;
63599;SDS011;49747;51.334;6.830;2022-12-17T15:19:05;28.77;;;13.57;;
63599;SDS011;49747;51.334;6.830;2022-12-17T15:21:31;27.25;;;14.07;;
63599;SDS011;49747;51.334;6.830;2022-12-17T15:23:58;26.05;;;14.38;;
63599;SDS011;49747;51.334;6.830;2022-12-17T15:26:25;25.75;;;13.60;;
63599;SDS011;49747;51.334;6.830;2022-12-17T15:28:53;29.58;;;14.27;;
63599;SDS011;49747;51.334;6.830;2022-12-17T15:31:19;24.63;;;13.45;;
63599;SDS011;49747;51.334;6.830;2022-12-17T15:33:52;28.55;;;14.70;;
63599;SDS011;49747;51.334;6.830;2022-12-17T15:36:18;30.42;;;15.75;;
63599;SDS011;49747;51.334;6.830;2022-12-17T15:38:45;30.80;;;15.75;;
63599;SDS011;49747;51.334;6.830;2022-12-17T15:41:13;29.00;;;15.90;;
63599;SDS011;49747;51.334;6.830;2022-12-17T15:43:58;30.05;;;16.17;;
63599;SDS011;49747;51.334;6.830;2022-12-17T15:46:25;28.35;;;16.40;;
63599;SDS011;49747;51.334;6.830;2022-12-17T15:48:52;27.13;;;16.17;;
63599;SDS011;49747;51.334;6.830;2022-12-17T15:51:19;32.08;;;16.77;;
63599;SDS011;49747;51.334;6.830;2022-12-17T15:53:46;29.25;;;16.17;;
63599;SDS011;49747;51.334;6.830;2022-12-17T15:56:14;31.17;;;15.63;;
63599;SDS011;49747;51.334;6.830;2022-12-17T15:58:45;26.13;;;15.18;;
63599;SDS011;49747;51.334;6.830;2022-12-17T16:01:12;30.48;;;17.10;;
63599;SDS011;49747;51.334;6.830;2022-12-17T16:03:40;30.48;;;15.82;;
63599;SDS011;49747;51.334;6.830;2022-12-17T16:06:07;29.15;;;15.80;;
63599;SDS011;49747;51.334;6.830;2022-12-17T16:08:33;30.60;;;18.10;;
63599;SDS011;49747;51.334;6.830;2022-12-17T16:11:07;30.17;;;16.85;;
63599;SDS011;49747;51.334;6.830;2022-12-17T16:13:35;28.58;;;16.17;;
63599;SDS011;49747;51.334;6.830;2022-12-17T16:16:03;30.92;;;16.15;;
63599;SDS011;49747;51.334;6.830;2022-12-17T16:18:31;25.77;;;14.35;;
63599;SDS011;49747;51.334;6.830;2022-12-17T16:21:01;27.63;;;14.25;;
63599;SDS011;49747;51.334;6.830;2022-12-17T16:23:29;26.52;;;14.48;;
63599;SDS011;49747;51.334;6.830;2022-12-17T16:25:57;28.23;;;15.27;;
63599;SDS011;49747;51.334;6.830;2022-12-17T16:28:26;25.80;;;14.68;;
63599;SDS011;49747;51.334;6.830;2022-12-17T16:30:57;27.45;;;13.98;;
63599;SDS011;49747;51.334;6.830;2022-12-17T16:33:35;27.85;;;14.65;;
63599;SDS011;49747;51.334;6.830;2022-12-17T16:36:04;28.20;;;15.55;;
63599;SDS011;49747;51.334;6.830;2022-12-17T16:38:32;27.40;;;15.13;;
63599;SDS011;49747;51.334;6.830;2022-12-17T16:41:00;31.15;;;16.92;;
63599;SDS011;49747;51.334;6.830;2022-12-17T16:43:31;32.20;;;16.92;;
63599;SDS011;49747;51.334;6.830;2022-12-17T16:45:59;31.77;;;18.02;;
63599;SDS011;49747;51.334;6.830;2022-12-17T16:48:27;31.10;;;17.75;;
63599;SDS011;49747;51.334;6.830;2022-12-17T16:50:53;42.25;;;22.30;;
63599;SDS011;49747;51.334;6.830;2022-12-17T16:53:20;42.10;;;22.08;;
63599;SDS011;49747;51.334;6.830;2022-12-17T16:55:47;40.72;;;20.63;;
63599;SDS011;49747;51.334;6.830;2022-12-17T16:58:15;38.60;;;20.25;;
63599;SDS011;49747;51.334;6.830;2022-12-17T17:00:43;39.88;;;21.60;;
63599;SDS011;49747;51.334;6.830;2022-12-17T17:03:11;38.85;;;18.38;;
63599;SDS011;49747;51.334;6.830;2022-12-17T17:05:39;36.45;;;19.23;;
63599;SDS011;49747;51.334;6.830;2022-12-17T17:08:05;35.20;;;18.02;;
63599;SDS011;49747;51.334;6.830;2022-12-17T17:10:33;33.13;;;17.33;;
63599;SDS011;49747;51.334;6.830;2022-12-17T17:13:02;36.10;;;20.00;;
63599;SDS011;49747;51.334;6.830;2022-12-17T17:15:29;36.70;;;17.98;;